Time;durP1;ratioP1;P1;durP2;ratioP2;P2;SDS_P1;SDS_P2;PMS_P1;PMS_P2;Temp;Humidity;BMP_temperature;BMP_pressure;BME280_temperature;BME280_humidity;BME280_pressure;Samples;Min_cycle;Max_cycle;Signal;HPM_P1;HPM_P2
2022/08/24 00:00:21;;;;;;;33.53;29.08;;;21.50;99.90;;;;;;5031815;28;20045;-79
2022/08/24 00:02:48;;;;;;;35.15;29.90;;;21.50;99.90;;;;;;5034562;28;20084;-80
2022/08/24 00:05:15;;;;;;;38.22;30.58;;;21.50;99.90;;;;;;5030896;28;20033;-80
2022/08/24 00:07:41;;;;;;;34.92;29.55;;;21.50;99.90;;;;;;5031499;28;20037;-80
2022/08/24 00:10:09;;;;;;;32.00;27.95;;;21.40;99.90;;;;;;5039602;28;20516;-80
2022/08/24 00:12:36;;;;;;;38.33;29.95;;;21.40;99.90;;;;;;5037115;28;20045;-80
2022/08/24 00:15:04;;;;;;;32.60;28.83;;;21.40;99.90;;;;;;5052838;28;20052;-80
2022/08/24 00:17:30;;;;;;;35.00;27.63;;;21.40;99.90;;;;;;5051700;28;20076;-80
2022/08/24 00:19:56;;;;;;;31.83;28.30;;;21.40;99.90;;;;;;5035278;28;20497;-80
2022/08/24 00:22:21;;;;;;;29.73;26.50;;;21.30;99.90;;;;;;5034555;28;20120;-80
2022/08/24 00:24:47;;;;;;;29.42;25.85;;;21.30;99.90;;;;;;5035886;28;20056;-80
2022/08/24 00:27:12;;;;;;;31.88;26.10;;;21.30;99.90;;;;;;5036035;28;20049;-80
2022/08/24 00:29:38;;;;;;;29.45;23.90;;;21.30;99.90;;;;;;5036781;28;20521;-80
2022/08/24 00:32:04;;;;;;;31.98;25.13;;;21.30;99.90;;;;;;5035410;28;20041;-80
2022/08/24 00:34:30;;;;;;;27.50;23.63;;;21.30;99.90;;;;;;5036403;28;20402;-80
2022/08/24 00:36:56;;;;;;;27.50;23.90;;;21.20;99.90;;;;;;5036665;28;20041;-80
2022/08/24 00:39:21;;;;;;;25.35;22.65;;;21.30;99.90;;;;;;5036809;28;20049;-80
2022/08/24 00:41:49;;;;;;;29.13;23.70;;;21.20;99.90;;;;;;5034116;28;20068;-80
2022/08/24 00:44:16;;;;;;;26.38;23.58;;;21.20;99.90;;;;;;5035548;28;20095;-80
2022/08/24 00:46:57;;;;;;;27.87;22.90;;;21.20;99.90;;;;;;5033800;28;20054;-80
2022/08/24 00:49:34;;;;;;;27.05;23.30;;;21.20;99.90;;;;;;5032427;28;20342;-80
2022/08/24 00:52:13;;;;;;;30.27;22.20;;;21.20;99.90;;;;;;5039636;28;20045;-80
2022/08/24 00:54:43;;;;;;;26.05;21.95;;;21.40;99.90;;;;;;5036253;28;20052;-80
2022/08/24 00:57:10;;;;;;;27.95;22.15;;;21.20;99.90;;;;;;5036622;28;20046;-80
2022/08/24 00:59:46;;;;;;;28.23;22.25;;;21.10;99.90;;;;;;5034432;28;20481;-80
2022/08/24 01:02:18;;;;;;;29.85;22.60;;;21.20;99.90;;;;;;5033912;28;20045;-80
2022/08/24 01:04:53;;;;;;;25.70;21.33;;;21.20;99.90;;;;;;5035914;28;20067;-81
2022/08/24 01:07:21;;;;;;;25.23;22.30;;;21.20;99.90;;;;;;5030226;28;20064;-81
2022/08/24 01:09:49;;;;;;;28.17;23.25;;;21.20;99.90;;;;;;5033808;28;20097;-81
2022/08/24 01:12:15;;;;;;;27.50;23.70;;;21.10;99.90;;;;;;5031648;28;20033;-82
2022/08/24 01:14:41;;;;;;;26.75;23.40;;;21.10;99.90;;;;;;5035602;28;20060;-81
2022/08/24 01:19:56;;;;;;;27.80;21.95;;;21.40;99.90;;;;;;5055767;28;20052;-81
2022/08/24 01:22:36;;;;;;;28.90;22.48;;;21.10;99.90;;;;;;5054257;28;20045;-81
2022/08/24 01:25:04;;;;;;;29.08;23.67;;;21.10;99.90;;;;;;5055521;28;20067;-81
2022/08/24 01:27:30;;;;;;;28.35;22.83;;;21.10;99.90;;;;;;5044361;28;20041;-81
2022/08/24 01:30:00;;;;;;;25.40;22.70;;;21.10;99.90;;;;;;5035067;28;20067;-81
2022/08/24 01:32:26;;;;;;;27.95;22.83;;;21.10;99.90;;;;;;5035515;28;20033;-81
2022/08/24 01:34:53;;;;;;;32.13;23.38;;;21.00;99.90;;;;;;5033802;28;20053;-81
2022/08/24 01:37:19;;;;;;;26.27;21.10;;;21.10;99.90;;;;;;5035209;28;20081;-81
2022/08/24 01:39:47;;;;;;;27.90;23.05;;;21.00;99.90;;;;;;5034937;28;20156;-82
2022/08/24 01:42:13;;;;;;;26.38;22.55;;;21.00;99.90;;;;;;5034452;28;20053;-81
2022/08/24 01:44:42;;;;;;;26.55;23.70;;;21.00;99.90;;;;;;5034270;28;20389;-81
2022/08/24 01:47:09;;;;;;;30.35;23.25;;;21.00;99.90;;;;;;5034643;28;20050;-81
2022/08/24 01:49:39;;;;;;;26.88;22.70;;;21.00;99.90;;;;;;5033879;28;20387;-81
2022/08/24 01:52:06;;;;;;;26.30;22.75;;;21.00;99.90;;;;;;5035161;28;20085;-81
2022/08/24 01:54:33;;;;;;;27.35;22.65;;;21.20;99.90;;;;;;5046550;28;20037;-81
2022/08/24 01:56:59;;;;;;;27.63;23.10;;;20.90;99.90;;;;;;5055530;28;20029;-81
2022/08/24 01:59:25;;;;;;;28.17;23.35;;;21.10;99.90;;;;;;5052010;28;20032;-81
2022/08/24 02:01:57;;;;;;;27.52;21.83;;;20.90;99.90;;;;;;5035292;28;20079;-82
2022/08/24 02:04:23;;;;;;;26.02;22.05;;;20.90;99.90;;;;;;5035090;28;20096;-81
2022/08/24 02:06:48;;;;;;;25.73;21.92;;;20.80;99.90;;;;;;5034331;28;20037;-81
2022/08/24 02:09:14;;;;;;;28.23;23.48;;;20.80;99.90;;;;;;5034148;28;20445;-81
2022/08/24 02:11:41;;;;;;;26.08;22.15;;;20.80;99.90;;;;;;5032017;28;20053;-81
2022/08/24 02:14:07;;;;;;;26.92;22.25;;;20.70;99.90;;;;;;5031236;28;20069;-81
2022/08/24 02:16:32;;;;;;;29.25;23.08;;;20.70;99.90;;;;;;5033326;28;20080;-81
2022/08/24 02:18:58;;;;;;;23.92;21.42;;;20.70;99.90;;;;;;5032516;28;20489;-81
2022/08/24 02:21:24;;;;;;;25.40;22.58;;;20.70;99.90;;;;;;5034877;28;20041;-82
2022/08/24 02:23:50;;;;;;;26.38;21.85;;;20.70;99.90;;;;;;5034971;28;20045;-81
2022/08/24 02:26:16;;;;;;;24.55;21.17;;;20.70;99.90;;;;;;5034745;28;20064;-81
2022/08/24 02:28:42;;;;;;;26.83;22.25;;;20.70;99.90;;;;;;5034620;28;20429;-81
2022/08/24 02:31:11;;;;;;;23.90;20.63;;;20.70;99.90;;;;;;5034156;28;20040;-81
2022/08/24 02:33:38;;;;;;;25.73;20.95;;;20.70;99.90;;;;;;5034639;28;20127;-81
2022/08/24 02:36:06;;;;;;;24.48;20.55;;;20.70;99.90;;;;;;5034253;28;20045;-81
2022/08/24 02:38:31;;;;;;;24.33;20.95;;;20.60;99.90;;;;;;5032158;28;20519;-81
2022/08/24 02:40:58;;;;;;;24.85;21.17;;;20.60;99.90;;;;;;5033432;28;20041;-81
2022/08/24 02:43:24;;;;;;;22.65;19.80;;;20.60;99.90;;;;;;5033724;28;20076;-82
2022/08/24 02:45:50;;;;;;;25.52;21.02;;;20.60;99.90;;;;;;5033326;28;20095;-82
2022/08/24 02:48:17;;;;;;;25.08;21.33;;;20.60;99.90;;;;;;5033777;28;20444;-81
2022/08/24 02:50:45;;;;;;;27.60;22.58;;;20.60;99.90;;;;;;5032348;28;20049;-81
2022/08/24 02:53:13;;;;;;;23.83;20.60;;;20.70;99.90;;;;;;5032230;28;20394;-81
2022/08/24 02:55:41;;;;;;;26.05;21.55;;;20.70;99.90;;;;;;5032538;28;20034;-80
2022/08/24 02:58:08;;;;;;;26.67;22.25;;;20.70;99.90;;;;;;5032911;28;20194;-81
2022/08/24 03:00:35;;;;;;;25.65;22.42;;;20.60;99.90;;;;;;5033973;28;20132;-81
2022/08/24 03:03:01;;;;;;;27.88;23.02;;;20.60;99.90;;;;;;5033614;28;20075;-81
2022/08/24 03:05:28;;;;;;;27.15;23.20;;;20.70;99.90;;;;;;5035334;28;20455;-81
2022/08/24 03:07:54;;;;;;;29.85;22.00;;;20.60;99.90;;;;;;5032815;28;20087;-81
2022/08/24 03:10:20;;;;;;;28.23;22.35;;;20.50;99.90;;;;;;5031918;28;20076;-81
2022/08/24 03:12:46;;;;;;;25.13;21.98;;;20.50;99.90;;;;;;5031909;28;20048;-80
2022/08/24 03:15:13;;;;;;;27.25;23.55;;;20.50;99.90;;;;;;5033779;28;20038;-81
2022/08/24 03:17:39;;;;;;;30.33;23.63;;;20.50;99.90;;;;;;5031251;28;20057;-81
2022/08/24 03:20:09;;;;;;;32.80;25.42;;;20.40;99.90;;;;;;5030908;28;20064;-82
2022/08/24 03:22:34;;;;;;;25.58;22.88;;;20.50;99.90;;;;;;5033889;28;20104;-81
2022/08/24 03:25:00;;;;;;;26.83;23.55;;;20.50;99.90;;;;;;5033627;28;20034;-81
2022/08/24 03:27:26;;;;;;;25.95;22.67;;;20.90;99.90;;;;;;5033286;28;20046;-81
2022/08/24 03:29:51;;;;;;;25.67;22.05;;;20.70;99.90;;;;;;5033407;28;20052;-81
2022/08/24 03:32:17;;;;;;;29.50;22.73;;;20.40;99.90;;;;;;5033166;28;20390;-82
2022/08/24 03:34:43;;;;;;;24.85;21.88;;;20.80;99.90;;;;;;5030876;28;20512;-81
2022/08/24 03:37:09;;;;;;;24.13;21.40;;;20.50;99.90;;;;;;5021085;28;20091;-82
2022/08/24 03:39:35;;;;;;;25.80;23.08;;;20.40;99.90;;;;;;5036049;28;20044;-81
2022/08/24 03:42:00;;;;;;;28.20;23.63;;;20.30;99.90;;;;;;5031900;28;20113;-81
2022/08/24 03:44:26;;;;;;;24.75;21.50;;;20.30;99.90;;;;;;5032538;28;20049;-82
2022/08/24 03:46:52;;;;;;;27.52;22.88;;;20.30;99.90;;;;;;5031483;28;20060;-81
2022/08/24 03:49:18;;;;;;;26.25;22.42;;;20.30;99.90;;;;;;5033225;28;20124;-81
2022/08/24 03:51:44;;;;;;;26.40;23.25;;;20.30;99.90;;;;;;5033220;28;20053;-81
2022/08/24 03:54:12;;;;;;;25.13;22.48;;;20.20;99.90;;;;;;5035882;28;20057;-81
2022/08/24 03:56:39;;;;;;;27.05;23.65;;;20.30;99.90;;;;;;5038634;28;20072;-81
2022/08/24 03:59:06;;;;;;;26.00;23.05;;;20.20;99.90;;;;;;5038960;28;20406;-81
2022/08/24 04:01:32;;;;;;;28.05;22.20;;;20.60;99.90;;;;;;5040210;28;20037;-81
2022/08/24 04:03:58;;;;;;;24.92;20.98;;;20.50;99.90;;;;;;5040882;28;20044;-81
2022/08/24 04:06:24;;;;;;;25.15;22.45;;;20.20;99.90;;;;;;5035396;28;20746;-82
2022/08/24 04:08:51;;;;;;;25.17;22.00;;;20.50;99.90;;;;;;5042442;28;20138;-81
2022/08/24 04:11:20;;;;;;;24.50;21.08;;;20.10;99.90;;;;;;5042266;28;20049;-81
2022/08/24 04:13:46;;;;;;;25.33;22.45;;;20.10;99.90;;;;;;5039342;28;20045;-81
2022/08/24 04:16:18;;;;;;;24.58;21.98;;;20.10;99.90;;;;;;5039572;28;20048;-81
2022/08/24 04:18:44;;;;;;;24.67;22.08;;;20.10;99.90;;;;;;5037733;28;20119;-81
2022/08/24 04:21:19;;;;;;;29.63;25.15;;;20.00;99.90;;;;;;5038710;28;20037;-81
2022/08/24 04:23:46;;;;;;;27.50;23.27;;;20.80;99.90;;;;;;5039549;28;20049;-81
2022/08/24 04:26:12;;;;;;;24.88;21.58;;;20.10;99.90;;;;;;5032754;28;20088;-81
2022/08/24 04:28:37;;;;;;;26.88;22.90;;;20.10;99.90;;;;;;5028479;28;20053;-81
2022/08/24 04:31:04;;;;;;;28.05;23.42;;;20.20;99.90;;;;;;5038609;28;20421;-82
2022/08/24 04:33:30;;;;;;;27.70;23.50;;;20.10;99.90;;;;;;5037346;28;20048;-81
2022/08/24 04:35:56;;;;;;;27.35;23.92;;;20.10;99.90;;;;;;5038553;28;20033;-82
2022/08/24 04:38:22;;;;;;;30.60;25.27;;;20.00;99.90;;;;;;5039004;28;20041;-81
2022/08/24 04:40:48;;;;;;;28.45;24.55;;;20.10;99.90;;;;;;5038245;28;20496;-81
2022/08/24 04:43:15;;;;;;;29.00;24.08;;;20.10;99.90;;;;;;5039531;28;20524;-82
2022/08/24 04:45:45;;;;;;;28.98;25.05;;;20.10;99.90;;;;;;5038900;28;20041;-82
2022/08/24 04:48:13;;;;;;;29.40;25.55;;;20.10;99.90;;;;;;5037855;28;20049;-82
2022/08/24 04:50:41;;;;;;;30.27;25.63;;;20.10;99.90;;;;;;5038731;28;20393;-83
2022/08/24 04:53:07;;;;;;;29.33;25.45;;;20.10;99.90;;;;;;5039772;28;20383;-82
2022/08/24 04:55:42;;;;;;;28.10;25.15;;;20.40;99.90;;;;;;5038893;28;20401;-81
2022/08/24 04:58:08;;;;;;;30.73;25.73;;;20.00;99.90;;;;;;5035735;28;20041;-83
2022/08/24 05:00:34;;;;;;;36.58;26.55;;;20.00;99.90;;;;;;5037521;28;20378;-82
2022/08/24 05:02:59;;;;;;;28.02;24.90;;;20.10;99.90;;;;;;5038499;28;20034;-83
2022/08/24 05:05:25;;;;;;;30.90;25.73;;;20.60;99.90;;;;;;5037418;28;20041;-83
2022/08/24 05:07:50;;;;;;;31.63;26.92;;;20.10;99.90;;;;;;5037555;28;20121;-82
2022/08/24 05:10:16;;;;;;;32.20;27.98;;;20.10;99.90;;;;;;5036891;28;20107;-82
2022/08/24 05:12:43;;;;;;;32.83;28.17;;;20.10;99.90;;;;;;5035912;28;20130;-82
2022/08/24 05:15:09;;;;;;;36.53;26.88;;;20.10;99.90;;;;;;5038663;28;20033;-82
2022/08/24 05:17:34;;;;;;;34.78;28.42;;;20.10;99.90;;;;;;5037617;28;20132;-82
2022/08/24 05:20:00;;;;;;;33.47;29.33;;;20.10;99.90;;;;;;5038241;28;20079;-82
2022/08/24 05:22:25;;;;;;;38.17;29.30;;;20.10;99.90;;;;;;5038705;28;20064;-83
2022/08/24 05:24:51;;;;;;;37.35;27.73;;;20.10;99.90;;;;;;5037445;28;20095;-82
2022/08/24 05:27:17;;;;;;;39.92;29.10;;;20.20;99.90;;;;;;5037665;28;20060;-82
2022/08/24 05:29:44;;;;;;;34.80;28.38;;;20.20;99.90;;;;;;5039523;28;20076;-83
2022/08/24 05:32:10;;;;;;;37.92;27.27;;;20.20;99.90;;;;;;5052583;28;20045;-82
2022/08/24 05:34:36;;;;;;;41.17;29.65;;;20.20;99.90;;;;;;5038818;28;20425;-81
2022/08/24 05:37:03;;;;;;;36.63;27.65;;;20.20;99.90;;;;;;5026951;28;20030;-81
2022/08/24 05:39:30;;;;;;;35.15;26.00;;;20.20;99.90;;;;;;5037106;28;20037;-81
2022/08/24 05:41:58;;;;;;;33.45;25.85;;;20.50;99.90;;;;;;5038145;28;20065;-81
2022/08/24 05:44:24;;;;;;;34.35;26.45;;;20.30;99.90;;;;;;5039314;28;20046;-81
2022/08/24 05:46:50;;;;;;;30.02;24.27;;;20.30;99.90;;;;;;5041183;28;20044;-81
2022/08/24 05:49:15;;;;;;;31.42;25.08;;;20.30;99.90;;;;;;5044331;28;20057;-81
2022/08/24 05:51:41;;;;;;;31.70;26.35;;;20.40;99.90;;;;;;5038358;28;20092;-81
2022/08/24 05:54:08;;;;;;;31.42;26.15;;;20.40;99.90;;;;;;5036091;28;20050;-81
2022/08/24 05:56:34;;;;;;;31.30;26.83;;;20.50;99.90;;;;;;5036072;28;20092;-82
2022/08/24 05:59:01;;;;;;;26.30;23.42;;;20.50;99.90;;;;;;5042013;28;20046;-81
2022/08/24 06:01:27;;;;;;;26.48;22.65;;;20.60;99.90;;;;;;5038695;28;20103;-81
2022/08/24 06:03:54;;;;;;;25.33;22.38;;;20.80;99.90;;;;;;5040400;28;20075;-81
2022/08/24 06:06:22;;;;;;;25.55;22.75;;;20.60;99.90;;;;;;5041326;28;20525;-81
2022/08/24 06:08:53;;;;;;;25.20;22.05;;;20.80;99.90;;;;;;5025243;28;20109;-81
2022/08/24 06:11:23;;;;;;;24.67;21.70;;;20.60;99.90;;;;;;5038180;28;20037;-82
2022/08/24 06:13:53;;;;;;;25.30;21.08;;;20.70;99.90;;;;;;5049151;28;20041;-81
2022/08/24 06:16:20;;;;;;;27.25;21.95;;;20.70;99.90;;;;;;5045033;28;20123;-81
2022/08/24 06:18:46;;;;;;;26.55;21.42;;;20.80;99.90;;;;;;5055794;28;20045;-81
2022/08/24 06:21:15;;;;;;;31.10;22.05;;;20.70;99.90;;;;;;5028280;28;20041;-82
2022/08/24 06:23:42;;;;;;;32.28;21.83;;;20.90;99.90;;;;;;5040528;28;20045;-82
2022/08/24 06:28:55;;;;;;;29.38;21.60;;;21.00;99.90;;;;;;5036389;28;20045;-82
2022/08/24 06:31:23;;;;;;;30.85;22.25;;;21.00;99.90;;;;;;5037454;28;20056;-82
2022/08/24 06:33:49;;;;;;;28.00;21.63;;;21.00;99.90;;;;;;5036550;28;20041;-82
2022/08/24 06:36:15;;;;;;;24.55;20.75;;;21.10;99.90;;;;;;5037037;28;20042;-82
2022/08/24 06:38:40;;;;;;;27.33;20.40;;;21.20;99.90;;;;;;5037795;28;20057;-81
2022/08/24 06:41:07;;;;;;;24.00;18.40;;;21.20;99.90;;;;;;5036853;28;20041;-82
2022/08/24 06:43:33;;;;;;;29.25;17.23;;;21.30;99.90;;;;;;5035851;28;20053;-82
2022/08/24 06:45:59;;;;;;;20.20;15.32;;;21.40;99.90;;;;;;5035323;28;20051;-82
2022/08/24 06:48:26;;;;;;;21.27;15.60;;;21.50;99.90;;;;;;5035768;28;20093;-82
2022/08/24 06:50:52;;;;;;;21.80;15.30;;;21.50;99.90;;;;;;5035146;28;20111;-82
2022/08/24 06:53:19;;;;;;;19.60;13.60;;;21.70;99.90;;;;;;5037995;28;20132;-82
2022/08/24 06:55:50;;;;;;;20.10;13.98;;;21.70;99.90;;;;;;5035056;28;20068;-81
2022/08/24 06:58:16;;;;;;;19.52;13.65;;;21.80;99.90;;;;;;5035013;28;20041;-82
2022/08/24 07:00:42;;;;;;;14.10;12.60;;;21.80;99.90;;;;;;5032975;28;20049;-82
2022/08/24 07:03:07;;;;;;;17.55;11.32;;;22.00;99.90;;;;;;5037430;28;20041;-82
2022/08/24 07:05:33;;;;;;;14.73;12.13;;;22.00;99.90;;;;;;5037622;28;20041;-81
2022/08/24 07:08:00;;;;;;;16.45;11.70;;;22.10;99.90;;;;;;5034776;28;20069;-82
2022/08/24 07:10:27;;;;;;;17.33;11.18;;;22.20;99.90;;;;;;5034138;28;20073;-82
2022/08/24 07:12:52;;;;;;;12.75;10.27;;;22.30;99.90;;;;;;5031995;28;20448;-82
2022/08/24 07:15:18;;;;;;;16.25;9.85;;;22.40;99.90;;;;;;5032549;28;20041;-80
2022/08/24 07:17:44;;;;;;;13.82;9.50;;;22.50;99.90;;;;;;5033175;28;20045;-82
2022/08/24 07:20:11;;;;;;;13.98;9.38;;;22.60;99.90;;;;;;5051141;28;20033;-81
2022/08/24 07:22:37;;;;;;;14.32;8.98;;;22.80;99.90;;;;;;5044587;28;20053;-80
2022/08/24 07:25:03;;;;;;;18.95;9.88;;;22.90;99.90;;;;;;5039531;28;20486;-81
2022/08/24 07:27:29;;;;;;;10.82;9.52;;;23.10;99.90;;;;;;5041870;28;20051;-83
2022/08/24 07:29:56;;;;;;;11.02;8.65;;;23.20;99.90;;;;;;5032441;28;20132;-83
2022/08/24 07:32:22;;;;;;;10.27;7.93;;;23.30;99.90;;;;;;5028146;28;20038;-83
2022/08/24 07:34:48;;;;;;;12.18;8.30;;;23.40;99.90;;;;;;5035690;28;20046;-83
2022/08/24 07:37:14;;;;;;;11.15;7.40;;;23.40;99.90;;;;;;5042670;28;20445;-83
2022/08/24 07:39:40;;;;;;;10.98;6.43;;;23.50;99.90;;;;;;5035062;28;20047;-82
2022/08/24 07:42:06;;;;;;;12.05;6.47;;;23.50;99.90;;;;;;5036857;28;20037;-82
2022/08/24 07:44:31;;;;;;;12.98;6.68;;;23.60;99.90;;;;;;5022960;28;20044;-82
2022/08/24 07:46:57;;;;;;;9.40;7.10;;;23.70;99.90;;;;;;5015526;28;20045;-83
2022/08/24 07:49:23;;;;;;;11.32;6.65;;;23.80;99.90;;;;;;5029103;28;20135;-84
2022/08/24 07:51:52;;;;;;;10.00;7.03;;;23.90;99.90;;;;;;5014553;28;20045;-85
2022/08/24 07:54:19;;;;;;;9.68;6.32;;;23.90;99.90;;;;;;5033009;28;20073;-80
2022/08/24 07:56:45;;;;;;;9.95;5.72;;;24.00;99.90;;;;;;5033863;28;20049;-80
2022/08/24 07:59:11;;;;;;;9.20;5.70;;;24.00;99.90;;;;;;5024244;28;20046;-80
2022/08/24 08:01:37;;;;;;;8.48;5.60;;;24.10;99.90;;;;;;5049713;28;20045;-80
2022/08/24 08:04:03;;;;;;;10.35;5.60;;;24.40;99.90;;;;;;5038477;28;20468;-80
2022/08/24 08:06:29;;;;;;;10.35;5.30;;;24.20;99.90;;;;;;5032594;28;20516;-79
2022/08/24 08:08:55;;;;;;;9.43;5.82;;;24.20;99.90;;;;;;5033213;28;20037;-80
2022/08/24 08:11:20;;;;;;;7.95;5.80;;;24.20;99.90;;;;;;5039584;28;20048;-79
2022/08/24 08:13:46;;;;;;;11.10;5.88;;;24.30;99.90;;;;;;5032391;28;20053;-80
2022/08/24 08:16:12;;;;;;;11.48;5.47;;;24.30;99.90;;;;;;5031716;28;20446;-80
2022/08/24 08:18:38;;;;;;;11.65;5.80;;;24.40;99.90;;;;;;5021279;28;20095;-80
2022/08/24 08:21:05;;;;;;;11.85;5.63;;;24.50;99.90;;;;;;5013011;28;20080;-79
2022/08/24 08:26:19;;;;;;;9.18;4.95;;;24.60;99.90;;;;;;5031365;28;20132;-79
2022/08/24 08:28:45;;;;;;;11.18;5.65;;;24.70;99.90;;;;;;5013777;28;20050;-81
2022/08/24 08:31:12;;;;;;;10.02;5.32;;;24.80;99.90;;;;;;5015343;28;20057;-81
2022/08/24 08:33:37;;;;;;;12.98;5.32;;;24.90;99.90;;;;;;5033259;28;20049;-81
2022/08/24 08:36:09;;;;;;;15.15;5.78;;;25.00;99.90;;;;;;5031826;28;20049;-81
2022/08/24 08:38:37;;;;;;;8.35;5.70;;;25.10;99.90;;;;;;5033244;28;20049;-81
2022/08/24 08:41:06;;;;;;;11.32;5.35;;;25.30;99.90;;;;;;5026332;28;20069;-85
2022/08/24 08:43:51;;;;;;;10.75;5.50;;;25.40;99.90;;;;;;5016003;28;20088;-81
2022/08/24 08:46:47;;;;;;;12.45;5.97;;;25.50;99.90;;;;;;5016534;28;20042;-81
2022/08/24 08:49:38;;;;;;;13.27;6.22;;;25.70;99.90;;;;;;5016714;28;20092;-81
2022/08/24 08:52:38;;;;;;;11.63;5.82;;;25.80;99.90;;;;;;5016421;28;20072;-81
2022/08/24 08:55:25;;;;;;;11.82;5.38;;;25.90;99.90;;;;;;5015426;28;20502;-81
2022/08/24 08:58:15;;;;;;;10.60;5.72;;;26.10;99.90;;;;;;5016649;28;20120;-80
2022/08/24 09:00:41;;;;;;;9.48;5.70;;;26.20;99.90;;;;;;5016714;28;20046;-80
2022/08/24 09:03:25;;;;;;;12.55;5.55;;;26.40;99.90;;;;;;5016245;28;20104;-80
2022/08/24 09:06:15;;;;;;;10.02;6.00;;;26.50;99.90;;;;;;5016245;28;20100;-77
2022/08/24 09:09:02;;;;;;;13.90;4.40;;;26.60;99.90;;;;;;5016282;28;20049;-77
2022/08/24 09:11:58;;;;;;;9.55;4.90;;;26.80;99.90;;;;;;5014936;28;20125;-78
2022/08/24 09:15:05;;;;;;;13.00;5.22;;;27.10;99.90;;;;;;5016285;28;20116;-78
2022/08/24 09:17:55;;;;;;;12.10;5.60;;;27.30;99.90;;;;;;4962121;28;20058;-77
2022/08/24 09:20:48;;;;;;;10.75;4.28;;;27.50;99.90;;;;;;4994316;28;20049;-78
2022/08/24 09:23:32;;;;;;;9.35;5.38;;;27.60;99.90;;;;;;5011734;28;20550;-78
2022/08/24 09:26:43;;;;;;;7.78;4.30;;;27.80;99.90;;;;;;5020569;28;20571;-78
2022/08/24 09:29:15;;;;;;;8.13;4.63;;;28.00;99.90;;;;;;5034561;28;20064;-78
2022/08/24 09:31:53;;;;;;;10.32;3.72;;;28.30;99.90;;;;;;5034047;28;20041;-78
2022/08/24 09:34:24;;;;;;;9.45;4.07;;;28.50;99.90;;;;;;5034579;28;20140;-78
2022/08/24 09:36:56;;;;;;;6.78;3.80;;;28.70;99.90;;;;;;5017239;28;20042;-78
2022/08/24 09:39:30;;;;;;;7.35;3.92;;;29.00;99.90;;;;;;5035770;28;20046;-78
2022/08/24 09:42:28;;;;;;;7.57;3.60;;;29.20;99.90;;;;;;5034303;28;20127;-78
2022/08/24 09:45:13;;;;;;;8.48;3.88;;;29.60;99.90;;;;;;5035031;28;20049;-78
2022/08/24 09:47:48;;;;;;;12.48;4.50;;;29.80;99.90;;;;;;5033997;28;20041;-78
2022/08/24 09:50:17;;;;;;;12.60;3.90;;;30.00;99.90;;;;;;5035006;28;20053;-78
2022/08/24 09:53:01;;;;;;;11.00;3.83;;;30.00;99.90;;;;;;5033058;28;20457;-78
2022/08/24 09:55:54;;;;;;;6.60;3.53;;;30.10;99.90;;;;;;5034848;28;20096;-75
2022/08/24 09:58:43;;;;;;;9.63;3.33;;;30.20;99.90;;;;;;5032844;28;20050;-77
2022/08/24 10:01:57;;;;;;;8.30;3.92;;;30.30;99.90;;;;;;5013856;28;20513;-75
2022/08/24 10:04:35;;;;;;;7.25;3.03;;;30.30;99.90;;;;;;4981400;28;20054;-76
2022/08/24 10:07:09;;;;;;;8.05;3.63;;;30.40;99.90;;;;;;5011944;28;20061;-78
2022/08/24 10:10:06;;;;;;;8.90;3.55;;;30.60;99.90;;;;;;5014780;28;20077;-78
2022/08/24 10:12:52;;;;;;;8.15;3.50;;;30.70;99.90;;;;;;5014852;28;20050;-78
2022/08/24 10:15:31;;;;;;;7.85;3.17;;;30.80;99.80;;;;;;5019429;28;20048;-78
2022/08/24 10:18:27;;;;;;;10.10;3.45;;;31.00;99.80;;;;;;5033151;28;20489;-78
2022/08/24 10:20:58;;;;;;;8.93;3.53;;;31.30;99.30;;;;;;5033948;28;20042;-76
2022/08/24 10:23:38;;;;;;;6.88;3.20;;;31.70;98.80;;;;;;5031215;28;20056;-77
2022/08/24 10:26:19;;;;;;;5.60;2.90;;;32.10;98.20;;;;;;5033302;28;20120;-76
2022/08/24 10:29:10;;;;;;;9.50;3.10;;;32.60;97.70;;;;;;5034216;28;20045;-77
2022/08/24 10:31:56;;;;;;;7.57;2.75;;;32.90;97.20;;;;;;5033704;28;20037;-77
2022/08/24 10:34:34;;;;;;;7.47;3.33;;;33.00;96.50;;;;;;5034404;28;20068;-77
2022/08/24 10:37:31;;;;;;;7.22;3.40;;;33.10;96.40;;;;;;5032384;28;20045;-76
2022/08/24 10:40:20;;;;;;;6.10;3.33;;;33.30;96.30;;;;;;5034335;28;20042;-77
2022/08/24 10:46:24;;;;;;;6.20;3.10;;;33.40;95.50;;;;;;5034253;28;20144;-77
2022/08/24 10:49:31;;;;;;;4.40;2.50;;;33.40;95.70;;;;;;5033840;28;20419;-77
2022/08/24 10:52:18;;;;;;;5.32;2.40;;;33.50;95.60;;;;;;5029492;28;20058;-77
2022/08/24 10:54:44;;;;;;;4.07;2.75;;;33.70;94.90;;;;;;5013982;28;20466;-77
2022/08/24 10:57:17;;;;;;;4.50;2.30;;;33.60;94.40;;;;;;5013044;28;20042;-77
2022/08/24 10:59:49;;;;;;;5.95;2.40;;;33.50;94.30;;;;;;5014874;28;20115;-77
2022/08/24 11:02:27;;;;;;;5.38;2.40;;;33.50;94.40;;;;;;5012735;28;20454;-77
2022/08/24 11:04:58;;;;;;;6.85;2.20;;;33.70;94.10;;;;;;4995315;28;20080;-78
2022/08/24 11:07:24;;;;;;;3.72;2.10;;;33.90;94.30;;;;;;5028331;28;20510;-77
2022/08/24 11:09:59;;;;;;;4.22;2.30;;;34.10;94.00;;;;;;5022635;28;20100;-77
2022/08/24 11:12:30;;;;;;;5.63;2.30;;;34.40;93.70;;;;;;5013744;28;20394;-75
2022/08/24 11:15:09;;;;;;;4.10;2.00;;;34.60;93.50;;;;;;5014100;28;20092;-75
2022/08/24 11:17:36;;;;;;;6.20;2.20;;;35.00;93.20;;;;;;5012185;28;20111;-75
2022/08/24 11:20:02;;;;;;;5.35;2.30;;;35.30;92.60;;;;;;5013278;28;20077;-76
2022/08/24 11:22:40;;;;;;;4.10;2.17;;;35.40;92.40;;;;;;5012208;28;20092;-76
2022/08/24 11:25:14;;;;;;;4.55;2.17;;;35.30;92.00;;;;;;5026309;28;20063;-76
2022/08/24 11:27:45;;;;;;;5.88;1.88;;;35.00;91.90;;;;;;5033558;28;20053;-76
2022/08/24 11:30:14;;;;;;;4.65;1.80;;;34.60;92.30;;;;;;5015922;28;20130;-75
2022/08/24 11:32:52;;;;;;;4.35;2.10;;;34.50;92.90;;;;;;5033107;28;20072;-76
2022/08/24 11:35:20;;;;;;;4.45;2.20;;;34.70;92.60;;;;;;5033113;28;20439;-76
2022/08/24 11:37:48;;;;;;;6.07;2.53;;;35.60;91.70;;;;;;5032838;28;20116;-76
2022/08/24 11:40:16;;;;;;;3.35;1.92;;;36.30;90.60;;;;;;5028563;28;20104;-76
2022/08/24 11:42:57;;;;;;;3.63;1.98;;;36.20;90.80;;;;;;5013191;28;20053;-76
2022/08/24 11:45:46;;;;;;;8.00;1.92;;;36.90;90.20;;;;;;5013761;28;20057;-76
2022/08/24 11:48:21;;;;;;;9.82;2.55;;;37.40;88.20;;;;;;5011948;28;20046;-76
2022/08/24 11:51:15;;;;;;;4.22;2.30;;;36.50;89.30;;;;;;5015290;28;20057;-75
2022/08/24 11:53:57;;;;;;;6.57;1.90;;;35.80;90.20;;;;;;5031943;28;20580;-76
2022/08/24 11:56:37;;;;;;;6.95;1.80;;;35.20;90.40;;;;;;5031347;28;20063;-76
2022/08/24 11:59:37;;;;;;;5.55;2.10;;;34.50;90.90;;;;;;5031868;28;20128;-76
2022/08/24 12:02:20;;;;;;;5.03;1.80;;;34.00;91.50;;;;;;5032257;28;20045;-75
2022/08/24 12:05:20;;;;;;;4.20;2.08;;;33.60;91.70;;;;;;5030956;28;20064;-76
2022/08/24 12:08:08;;;;;;;5.90;2.08;;;33.30;91.50;;;;;;5031422;28;20132;-76
2022/08/24 12:10:52;;;;;;;3.63;1.73;;;33.30;92.10;;;;;;5032691;28;20047;-75
2022/08/24 12:13:42;;;;;;;3.60;1.77;;;34.50;91.20;;;;;;5032544;28;20049;-76
2022/08/24 12:16:19;;;;;;;3.05;1.50;;;35.50;90.60;;;;;;5034363;28;20050;-75
2022/08/24 12:19:03;;;;;;;2.95;1.55;;;35.50;90.10;;;;;;5036394;28;20088;-76
2022/08/24 12:21:35;;;;;;;3.30;1.63;;;35.00;90.30;;;;;;5035570;28;20103;-75
2022/08/24 12:24:08;;;;;;;5.40;2.05;;;34.70;90.50;;;;;;5036359;28;20042;-75
2022/08/24 12:26:42;;;;;;;4.53;1.73;;;34.50;90.50;;;;;;5035927;28;20111;-77
2022/08/24 12:29:22;;;;;;;3.75;1.90;;;34.50;90.50;;;;;;5036920;28;20053;-76
2022/08/24 12:32:06;;;;;;;5.15;1.73;;;34.30;90.60;;;;;;5016775;28;20457;-77
2022/08/24 12:34:50;;;;;;;6.13;1.90;;;34.30;90.70;;;;;;4998722;28;20038;-77
2022/08/24 12:37:35;;;;;;;3.95;1.67;;;34.20;91.00;;;;;;5016482;28;20108;-77
2022/08/24 12:40:34;;;;;;;2.85;1.65;;;34.10;90.70;;;;;;5017211;28;20049;-77
2022/08/24 12:43:22;;;;;;;5.68;1.80;;;33.90;91.10;;;;;;5016429;28;20413;-77
2022/08/24 12:45:48;;;;;;;4.22;1.50;;;34.10;91.00;;;;;;5015087;28;20053;-77
2022/08/24 12:48:27;;;;;;;3.20;1.55;;;34.10;91.00;;;;;;5016401;28;20379;-76
2022/08/24 12:51:04;;;;;;;2.67;1.63;;;34.10;91.00;;;;;;4977960;28;20051;-76
2022/08/24 12:53:41;;;;;;;4.15;1.70;;;33.80;90.90;;;;;;4977604;28;20125;-76
2022/08/24 12:56:30;;;;;;;5.70;1.70;;;33.70;91.20;;;;;;4977359;28;20407;-77
2022/08/24 12:59:34;;;;;;;3.10;1.63;;;33.60;91.30;;;;;;4977711;28;20043;-77
2022/08/24 13:02:03;;;;;;;2.85;1.67;;;33.50;91.20;;;;;;4976826;28;20047;-77
2022/08/24 13:04:39;;;;;;;5.13;1.70;;;33.30;91.20;;;;;;4959682;28;20046;-76
2022/08/24 13:07:04;;;;;;;3.35;1.60;;;33.10;91.40;;;;;;4974169;28;20039;-77